Time;durP1;ratioP1;P1;durP2;ratioP2;P2;SDS_P1;SDS_P2;PMS_P1;PMS_P2;Temp;Humidity;BMP_temperature;BMP_pressure;BME280_temperature;BME280_humidity;BME280_pressure;Samples;Min_cycle;Max_cycle;Signal;HPM_P1;HPM_P2
2021/07/17 00:01:25;;;;;;;21.93;16.15;;;;;;;21.32;85.66;99750.80;1732210;81;21079;-63
2021/07/17 00:03:52;;;;;;;21.07;15.63;;;;;;;21.34;85.57;99759.44;1734269;81;20899;-63
2021/07/17 00:06:19;;;;;;;18.67;16.65;;;;;;;21.39;85.40;99754.58;1766911;81;21024;-63
2021/07/17 00:08:46;;;;;;;23.22;16.25;;;;;;;21.41;85.73;99755.28;1765536;81;21426;-63
2021/07/17 00:11:13;;;;;;;18.50;14.87;;;;;;;21.40;85.80;99751.80;1765100;81;21534;-63
2021/07/17 00:13:40;;;;;;;16.45;14.50;;;;;;;21.39;86.14;99753.25;1765501;81;21039;-63
2021/07/17 00:16:06;;;;;;;19.52;15.65;;;;;;;21.38;86.32;99752.91;1752236;81;21067;-63
2021/07/17 00:18:33;;;;;;;16.35;13.90;;;;;;;21.39;86.01;99757.23;1733983;81;20953;-63
2021/07/17 00:21:00;;;;;;;17.80;14.75;;;;;;;21.41;86.97;99750.80;1733930;82;20989;-63
2021/07/17 00:23:26;;;;;;;18.80;14.90;;;;;;;21.41;86.23;99749.97;1733796;81;20938;-63
2021/07/17 00:25:55;;;;;;;19.62;14.83;;;;;;;21.41;86.11;99754.79;1734066;81;21018;-63
2021/07/17 00:28:21;;;;;;;17.52;14.28;;;;;;;21.43;86.07;99755.98;1741244;81;21528;-63
2021/07/17 00:30:49;;;;;;;16.60;12.18;;;;;;;21.44;86.15;99752.34;1738634;81;20965;-63
2021/07/17 00:33:15;;;;;;;18.48;14.90;;;;;;;21.45;87.11;99759.32;1739626;81;21552;-63
2021/07/17 00:35:43;;;;;;;19.80;15.28;;;;;;;21.43;86.18;99758.64;1746092;81;20977;-63
2021/07/17 00:38:09;;;;;;;17.98;14.07;;;;;;;21.44;86.22;99753.67;1732572;82;21110;-63
2021/07/17 00:40:37;;;;;;;18.75;15.18;;;;;;;21.45;87.05;99755.33;1740170;81;21009;-63
2021/07/17 00:43:04;;;;;;;;;;;;;;;21.42;86.73;99760.44;1742069;81;21534;-63
2021/07/17 00:45:30;;;;;;;19.17;14.13;;;;;;;21.40;87.42;99761.59;1739394;81;20129;-63
2021/07/17 00:47:57;;;;;;;21.62;14.55;;;;;;;21.37;87.60;99766.69;1735035;81;20958;-63
2021/07/17 00:50:26;;;;;;;15.85;14.15;;;;;;;21.36;86.90;99765.45;1739368;81;21088;-63
2021/07/17 00:52:52;;;;;;;16.23;13.08;;;;;;;21.39;86.91;99763.88;1739474;81;20938;-63
2021/07/17 00:55:21;;;;;;;18.52;14.28;;;;;;;21.37;86.86;99761.84;1751871;81;21519;-63
2021/07/17 00:57:50;;;;;;;16.73;14.23;;;;;;;21.39;86.80;99757.23;1738845;81;21532;-63
2021/07/17 01:00:17;;;;;;;19.35;13.72;;;;;;;21.41;86.75;99763.25;1742175;81;20978;-63
2021/07/17 01:03:01;;;;;;;16.32;12.07;;;;;;;21.42;86.92;99758.27;1726957;81;21129;-63
2021/07/17 01:05:29;;;;;;;15.68;12.53;;;;;;;21.42;87.09;99759.60;1752910;81;20981;-63
2021/07/17 01:07:57;;;;;;;14.65;12.30;;;;;;;21.41;86.89;99755.28;1764226;80;21029;-63
2021/07/17 01:10:25;;;;;;;14.75;12.35;;;;;;;21.35;87.29;99747.85;1787986;80;21542;-63
2021/07/17 01:12:52;;;;;;;15.93;12.40;;;;;;;21.40;87.00;99757.11;1750617;80;20914;-63
2021/07/17 01:15:19;;;;;;;16.77;12.85;;;;;;;21.41;87.13;99756.61;1755034;80;21495;-63
2021/07/17 01:17:48;;;;;;;14.93;12.30;;;;;;;21.41;87.05;99757.94;1756387;81;21557;-63
2021/07/17 01:20:19;;;;;;;17.07;12.23;;;;;;;21.40;86.96;99756.27;1739880;81;20914;-63
2021/07/17 01:22:46;;;;;;;17.25;12.03;;;;;;;21.41;86.99;99758.77;1742571;81;20976;-63
2021/07/17 01:25:20;;;;;;;13.43;11.60;;;;;;;21.40;87.15;99754.45;1756030;81;27679;-63
2021/07/17 01:27:49;;;;;;;17.67;12.53;;;;;;;21.39;87.15;99754.08;1733995;81;21084;-62
2021/07/17 01:30:21;;;;;;;19.45;12.33;;;;;;;21.40;87.05;99749.14;1756533;81;20986;-62
2021/07/17 01:32:48;;;;;;;17.02;11.97;;;;;;;21.40;87.12;99748.30;1742239;81;21677;-62
2021/07/17 01:35:15;;;;;;;;;;;;;;;21.37;87.06;99737.94;1741985;81;20930;-62
2021/07/17 01:37:43;;;;;;;15.18;11.85;;;;;;;21.34;87.25;99732.88;1728567;81;20093;-62
2021/07/17 01:40:18;;;;;;;15.45;11.70;;;;;;;21.32;87.26;99727.72;1723196;83;21643;-62
2021/07/17 01:42:40;;;;;;;16.95;12.63;;;;;;;21.31;87.83;99729.18;1701518;83;21006;-62
2021/07/17 01:45:09;;;;;;;14.23;12.00;;;;;;;21.27;87.38;99734.44;1719955;81;21544;-62
2021/07/17 01:47:36;;;;;;;14.58;12.37;;;;;;;21.27;88.14;99731.78;1752047;81;20981;-62
2021/07/17 01:50:08;;;;;;;17.55;13.18;;;;;;;21.24;87.66;99731.08;1751081;81;21005;-62
2021/07/17 01:52:35;;;;;;;16.62;12.07;;;;;;;21.23;87.63;99729.41;1735385;82;21146;-62
2021/07/17 01:55:03;;;;;;;16.70;12.58;;;;;;;21.22;87.57;99729.05;1737602;82;21490;-63
2021/07/17 01:57:30;;;;;;;15.95;13.10;;;;;;;21.21;87.75;99723.39;1722626;82;21547;-62
2021/07/17 01:59:56;;;;;;;15.88;14.25;;;;;;;21.20;87.86;99728.37;1721617;81;21025;-62
2021/07/17 02:02:23;;;;;;;17.07;13.85;;;;;;;21.19;87.78;99728.00;1723278;82;21558;-62
2021/07/17 02:04:50;;;;;;;19.82;13.60;;;;;;;21.21;87.82;99730.03;1713928;82;21117;-62
2021/07/17 02:07:16;;;;;;;22.85;13.95;;;;;;;21.20;88.20;99720.87;1727755;81;21002;-62
2021/07/17 02:09:44;;;;;;;19.52;15.65;;;;;;;21.19;87.94;99720.03;1740427;81;20973;-62
2021/07/17 02:12:11;;;;;;;15.83;14.23;;;;;;;21.20;87.94;99724.39;1741285;81;21552;-62
2021/07/17 02:14:41;;;;;;;21.25;13.93;;;;;;;21.21;87.86;99727.37;1744149;81;21096;-62
2021/07/17 02:17:09;;;;;;;18.05;13.78;;;;;;;21.23;87.91;99729.41;1735309;81;21093;-62
2021/07/17 02:19:36;;;;;;;20.97;14.03;;;;;;;21.26;87.90;99727.43;1737890;82;20910;-62
2021/07/17 02:22:04;;;;;;;24.85;14.65;;;;;;;21.28;87.84;99728.14;1713683;83;21000;-62
2021/07/17 02:24:30;;;;;;;17.65;13.60;;;;;;;21.29;87.88;99728.02;1761944;81;20925;-62
2021/07/17 02:26:58;;;;;;;20.30;13.95;;;;;;;21.29;87.98;99731.16;1729636;82;20942;-62
2021/07/17 02:29:25;;;;;;;18.17;13.40;;;;;;;21.29;87.98;99727.17;1735885;82;21050;-62
2021/07/17 02:31:51;;;;;;;;;;;;;;;21.28;88.03;99722.33;1742427;81;20984;-62
2021/07/17 02:34:18;;;;;;;18.60;14.47;;;;;;;21.28;88.11;99724.16;1714309;83;20098;-62
2021/07/17 02:36:44;;;;;;;18.57;14.68;;;;;;;21.28;88.05;99720.17;1748521;81;21628;-62
2021/07/17 02:39:11;;;;;;;16.23;14.43;;;;;;;21.29;88.44;99719.21;1741292;81;20929;-62
2021/07/17 02:41:38;;;;;;;19.00;14.70;;;;;;;21.28;88.83;99716.19;1761523;81;21510;-62
2021/07/17 02:44:06;;;;;;;14.93;12.88;;;;;;;21.26;88.70;99716.80;1741215;81;27768;-62
2021/07/17 02:46:33;;;;;;;17.67;15.20;;;;;;;21.22;88.62;99706.47;1734875;81;20985;-62
2021/07/17 02:48:59;;;;;;;16.05;14.07;;;;;;;21.20;88.57;99705.80;1738454;81;20894;-62
2021/07/17 02:51:26;;;;;;;15.38;13.80;;;;;;;21.22;88.49;99701.16;1743709;81;20937;-62
2021/07/17 02:53:53;;;;;;;18.37;15.18;;;;;;;21.27;88.47;99702.57;1699082;82;21917;-62
2021/07/17 02:56:19;;;;;;;24.47;14.43;;;;;;;21.29;88.44;99700.62;1728266;82;20965;-62
2021/07/17 02:58:46;;;;;;;22.02;15.00;;;;;;;21.32;88.45;99689.72;1734174;81;21535;-62
2021/07/17 03:01:13;;;;;;;15.93;14.15;;;;;;;21.29;88.54;99690.83;1730970;81;20948;-62
2021/07/17 03:03:39;;;;;;;16.95;15.08;;;;;;;21.28;88.71;99689.63;1723033;81;20965;-62
2021/07/17 03:06:06;;;;;;;16.35;13.80;;;;;;;21.27;88.79;99692.78;1714777;82;21144;-62
2021/07/17 03:08:33;;;;;;;20.65;13.43;;;;;;;21.28;88.97;99690.96;1734868;82;20996;-62
2021/07/17 03:10:59;;;;;;;21.62;15.72;;;;;;;21.28;88.68;99689.14;1750003;81;21004;-62
2021/07/17 03:13:26;;;;;;;19.15;16.12;;;;;;;21.32;88.68;99692.37;1740779;81;20934;-62
2021/07/17 03:15:52;;;;;;;23.27;15.72;;;;;;;21.32;88.85;99692.37;1768899;79;20902;-62
2021/07/17 03:18:20;;;;;;;21.93;16.17;;;;;;;21.31;88.73;99694.66;1734558;80;21784;-62
2021/07/17 03:20:47;;;;;;;17.07;15.28;;;;;;;21.31;89.04;99695.98;1747425;81;20934;-62
2021/07/17 03:23:14;;;;;;;16.40;14.53;;;;;;;21.32;89.01;99689.72;1734717;80;21551;-62
2021/07/17 03:25:41;;;;;;;19.37;14.40;;;;;;;21.32;89.11;99697.68;1779761;80;21028;-62
2021/07/17 03:28:08;;;;;;;17.27;15.18;;;;;;;21.33;89.60;99701.50;1712505;82;21507;-62
2021/07/17 03:30:36;;;;;;;18.82;14.23;;;;;;;21.32;89.19;99705.65;1757064;81;21087;-62
2021/07/17 03:33:03;;;;;;;19.42;15.70;;;;;;;21.38;89.28;99699.80;1745180;81;21464;-62
2021/07/17 03:35:30;;;;;;;17.90;13.60;;;;;;;21.41;89.34;99699.51;1739786;82;20993;-62
2021/07/17 03:37:57;;;;;;;15.95;13.95;;;;;;;21.43;89.61;99697.05;1731211;81;21041;-62
2021/07/17 03:40:24;;;;;;;;;;;;;;;21.43;89.41;99694.90;1744992;82;21045;-62
2021/07/17 03:42:50;;;;;;;18.85;14.20;;;;;;;21.44;90.01;99707.19;1738364;82;21076;-62
2021/07/17 03:45:17;;;;;;;21.37;13.08;;;;;;;21.41;89.96;99699.51;1724647;81;21524;-62
2021/07/17 03:47:43;;;;;;;16.25;13.65;;;;;;;21.40;90.20;99697.84;1748780;81;21623;-62
2021/07/17 03:50:11;;;;;;;16.02;12.80;;;;;;;21.38;90.13;99705.94;1714377;82;21021;-62
2021/07/17 03:52:38;;;;;;;17.00;13.38;;;;;;;21.42;89.85;99703.83;1738167;82;20989;-62
2021/07/17 03:55:06;;;;;;;17.98;13.40;;;;;;;21.46;90.61;99709.22;1720490;81;21077;-62
2021/07/17 03:57:33;;;;;;;17.77;12.20;;;;;;;21.43;90.87;99705.52;1752128;81;20914;-62
2021/07/17 04:00:00;;;;;;;13.13;11.18;;;;;;;21.45;90.20;99711.05;1730502;82;21029;-62
2021/07/17 04:02:29;;;;;;;13.72;11.63;;;;;;;21.49;89.99;99699.63;1720390;82;20958;-62
2021/07/17 04:04:57;;;;;;;18.75;11.90;;;;;;;21.56;90.18;99706.03;1731175;82;21018;-62
2021/07/17 04:07:23;;;;;;;11.95;10.23;;;;;;;21.61;89.98;99702.45;1704028;82;21595;-62
2021/07/17 04:09:50;;;;;;;13.75;10.72;;;;;;;21.61;90.43;99701.13;1732684;81;21001;-62
2021/07/17 04:12:16;;;;;;;14.38;10.82;;;;;;;21.56;90.47;99701.21;1736562;82;21021;-62
2021/07/17 04:14:43;;;;;;;16.87;9.83;;;;;;;21.54;90.46;99700.05;1727233;82;21047;-62
2021/07/17 04:17:10;;;;;;;12.95;9.53;;;;;;;21.56;90.60;99702.05;1710585;82;20995;-62
2021/07/17 04:19:37;;;;;;;11.28;10.08;;;;;;;21.57;90.35;99698.42;1710146;83;21396;-62
2021/07/17 04:22:03;;;;;;;14.75;10.35;;;;;;;21.57;90.22;99702.41;1696760;84;20989;-62
2021/07/17 04:24:30;;;;;;;14.05;9.30;;;;;;;21.57;90.20;99709.05;1707285;83;21055;-62
2021/07/17 04:26:57;;;;;;;14.18;9.65;;;;;;;21.57;90.04;99702.41;1711802;83;20945;-62
2021/07/17 04:29:23;;;;;;;10.68;8.85;;;;;;;21.57;90.01;99713.04;1739834;81;21130;-62
2021/07/17 04:31:50;;;;;;;11.00;8.68;;;;;;;21.59;90.02;99702.25;1739959;81;21127;-62
2021/07/17 04:34:17;;;;;;;13.95;8.28;;;;;;;21.60;89.92;99708.77;1699084;82;21065;-62
2021/07/17 04:36:43;;;;;;;15.40;8.10;;;;;;;21.59;90.18;99708.89;1706449;82;21052;-62
2021/07/17 04:39:10;;;;;;;10.15;6.42;;;;;;;21.51;89.98;99705.65;1699849;82;21540;-62
2021/07/17 04:41:37;;;;;;;14.50;7.35;;;;;;;21.42;90.22;99703.83;1701148;84;26561;-62
2021/07/17 04:44:04;;;;;;;8.10;6.37;;;;;;;21.35;90.40;99710.67;1704744;82;22256;-62
2021/07/17 04:46:31;;;;;;;10.45;6.67;;;;;;;21.32;90.49;99713.61;1714155;82;20914;-62
2021/07/17 04:48:57;;;;;;;12.45;5.90;;;;;;;21.34;90.27;99708.98;1719921;82;21561;-63
2021/07/17 04:51:24;;;;;;;9.85;5.55;;;;;;;21.34;90.82;99712.96;1707319;82;21000;-62
2021/07/17 04:53:51;;;;;;;12.25;5.87;;;;;;;21.33;90.25;99715.28;1695265;82;20970;-62
2021/07/17 04:56:17;;;;;;;13.85;6.10;;;;;;;21.35;90.23;99716.81;1762202;81;21908;-62
2021/07/17 04:58:44;;;;;;;10.68;6.05;;;;;;;21.32;90.15;99718.92;1704756;81;21052;-62
2021/07/17 05:01:11;;;;;;;10.05;5.33;;;;;;;21.32;90.37;99724.23;1701277;83;21550;-62
2021/07/17 05:03:37;;;;;;;7.47;4.75;;;;;;;21.30;90.16;99728.84;1732131;82;20941;-62
2021/07/17 05:06:05;;;;;;;12.18;5.72;;;;;;;21.30;90.55;99732.33;1706568;83;21566;-62
2021/07/17 05:08:32;;;;;;;8.88;6.22;;;;;;;21.30;90.28;99734.16;1749770;80;21887;-62
2021/07/17 05:10:58;;;;;;;;;;;;;;;21.27;90.23;99726.47;1715902;81;20977;-62
2021/07/17 05:13:25;;;;;;;10.70;6.15;;;;;;;21.28;90.65;99728.14;1717662;82;20442;-62
2021/07/17 05:15:52;;;;;;;13.38;5.67;;;;;;;21.29;90.26;99730.66;1703149;82;20980;-62
2021/07/17 05:18:19;;;;;;;9.65;5.65;;;;;;;21.29;90.01;99733.32;1705760;84;21051;-62
2021/07/17 05:20:46;;;;;;;11.43;5.15;;;;;;;21.31;90.02;99741.13;1761497;81;21069;-62
2021/07/17 05:23:13;;;;;;;14.40;5.55;;;;;;;21.32;89.93;99742.83;1761899;80;28566;-62
2021/07/17 05:25:40;;;;;;;8.65;5.60;;;;;;;21.34;89.73;99740.84;1762040;80;21571;-62
2021/07/17 05:28:06;;;;;;;13.62;4.72;;;;;;;21.37;89.70;99745.91;1698398;83;20910;-62
2021/07/17 05:30:33;;;;;;;9.85;5.35;;;;;;;21.40;89.79;99745.65;1709900;82;20957;-62
2021/07/17 05:33:00;;;;;;;11.90;6.10;;;;;;;21.40;89.54;99746.48;1710137;82;21171;-62
2021/07/17 05:35:30;;;;;;;11.38;5.80;;;;;;;21.43;89.49;99751.51;1710836;82;21546;-62
2021/07/17 05:37:58;;;;;;;7.60;5.30;;;;;;;21.44;89.30;99749.69;1727313;81;21032;-62
2021/07/17 05:40:25;;;;;;;13.78;5.80;;;;;;;21.46;89.23;99742.42;1705712;82;20972;-63
2021/07/17 05:42:52;;;;;;;7.65;4.75;;;;;;;21.48;89.18;99745.75;1725616;81;20973;-62
2021/07/17 05:45:19;;;;;;;13.25;6.50;;;;;;;21.54;89.33;99747.87;1705501;82;22416;-62
2021/07/17 05:47:46;;;;;;;10.93;4.90;;;;;;;21.58;89.04;99754.55;1705060;84;20937;-62
2021/07/17 05:50:14;;;;;;;8.33;5.42;;;;;;;21.59;88.80;99756.25;1751436;80;21008;-62
2021/07/17 05:52:42;;;;;;;11.83;5.53;;;;;;;21.54;88.64;99754.50;1761492;80;20987;-62
2021/07/17 05:55:11;;;;;;;12.20;5.05;;;;;;;21.54;88.83;99755.84;1761247;80;21550;-62
2021/07/17 05:57:37;;;;;;;13.32;5.70;;;;;;;21.66;89.05;99752.03;1761335;81;21155;-62
2021/07/17 06:00:09;;;;;;;11.90;5.28;;;;;;;21.66;88.49;99763.16;1763371;80;20964;-62
2021/07/17 06:02:36;;;;;;;8.50;5.05;;;;;;;21.61;87.84;99760.91;1724800;81;21535;-63
2021/07/17 06:05:03;;;;;;;11.20;5.80;;;;;;;21.58;87.97;99759.03;1704892;82;20985;-63
2021/07/17 06:07:30;;;;;;;10.10;5.10;;;;;;;21.52;87.92;99771.06;1705466;82;20949;-63
2021/07/17 06:09:57;;;;;;;12.28;5.85;;;;;;;21.49;87.84;99777.16;1706111;82;21137;-63
2021/07/17 06:12:23;;;;;;;33.58;15.72;;;;;;;21.44;87.74;99768.28;1725466;83;21221;-64
2021/07/17 06:14:50;;;;;;;22.87;14.95;;;;;;;21.44;87.65;99768.28;1718968;82;20942;-65
2021/07/17 06:17:17;;;;;;;22.17;14.15;;;;;;;21.44;87.79;99760.31;1730231;80;20989;-64
2021/07/17 06:19:44;;;;;;;15.13;9.15;;;;;;;21.44;87.44;99766.95;1748377;80;21067;-64
2021/07/17 06:22:12;;;;;;;12.35;8.80;;;;;;;21.54;87.56;99779.74;1736356;81;22139;-64
2021/07/17 06:24:40;;;;;;;9.33;6.62;;;;;;;21.64;87.65;99774.41;1733074;82;21109;-64
2021/07/17 06:27:08;;;;;;;8.90;5.92;;;;;;;21.65;87.19;99780.92;1729252;81;21569;-64
2021/07/17 06:29:37;;;;;;;9.43;5.25;;;;;;;21.66;87.00;99787.90;1738317;81;21097;-63
2021/07/17 06:32:05;;;;;;;9.70;5.17;;;;;;;21.60;86.30;99782.33;1746403;81;21005;-64
2021/07/17 06:34:32;;;;;;;8.23;5.72;;;;;;;21.54;86.61;99790.38;1743858;81;21069;-64
2021/07/17 06:37:00;;;;;;;6.53;5.70;;;;;;;21.55;86.57;99792.03;1738078;81;21559;-63
2021/07/17 06:39:27;;;;;;;9.65;6.72;;;;;;;21.55;86.78;99792.03;1735632;81;21579;-63
2021/07/17 06:41:54;;;;;;;11.18;6.45;;;;;;;21.54;86.20;99793.03;1736218;81;20986;-63
2021/07/17 06:44:20;;;;;;;12.88;6.80;;;;;;;21.60;86.85;99794.28;1748980;81;21606;-64
2021/07/17 06:46:47;;;;;;;9.38;5.95;;;;;;;21.71;86.79;99798.61;1715879;81;22554;-64
2021/07/17 06:49:14;;;;;;;6.85;4.92;;;;;;;21.71;85.95;99806.58;1740918;80;20986;-64
2021/07/17 06:51:40;;;;;;;9.18;5.58;;;;;;;21.75;86.12;99806.62;1752582;80;20966;-63
2021/07/17 06:54:07;;;;;;;7.72;5.58;;;;;;;21.73;86.12;99816.06;1742147;80;21021;-63
2021/07/17 06:56:34;;;;;;;8.75;5.22;;;;;;;21.59;85.18;99814.70;1740594;81;21018;-64
2021/07/17 06:59:01;;;;;;;10.18;6.75;;;;;;;21.49;85.39;99818.34;1737788;81;21088;-63
2021/07/17 07:01:28;;;;;;;10.20;6.17;;;;;;;21.46;85.66;99814.14;1714002;80;21032;-63
2021/07/17 07:03:56;;;;;;;10.95;6.45;;;;;;;21.44;85.50;99818.75;1744986;80;20971;-63
2021/07/17 07:06:23;;;;;;;10.48;6.28;;;;;;;21.41;85.71;99805.75;1736317;82;20970;-63
2021/07/17 07:08:51;;;;;;;9.78;6.20;;;;;;;21.42;85.67;99806.09;1730950;81;21047;-64
2021/07/17 07:11:20;;;;;;;8.33;5.10;;;;;;;21.47;85.93;99811.82;1737521;81;21106;-64
2021/07/17 07:13:47;;;;;;;9.83;5.80;;;;;;;21.57;85.78;99808.69;1713825;82;20923;-64
2021/07/17 07:16:14;;;;;;;9.35;5.58;;;;;;;21.81;85.99;99812.70;1742464;80;20954;-63
2021/07/17 07:18:40;;;;;;;;;;;;;;;21.91;85.55;99806.89;1747343;80;20974;-64
2021/07/17 07:21:07;;;;;;;9.78;5.50;;;;;;;21.96;84.81;99808.63;1744657;81;20154;-64
2021/07/17 07:23:34;;;;;;;10.82;5.55;;;;;;;21.95;84.77;99804.27;1746221;81;21885;-63
2021/07/17 07:26:01;;;;;;;9.85;5.35;;;;;;;21.89;84.18;99804.85;1746505;81;21001;-63
2021/07/17 07:28:28;;;;;;;7.03;5.37;;;;;;;21.92;84.68;99804.56;1743491;81;21013;-63
2021/07/17 07:30:55;;;;;;;10.18;5.00;;;;;;;22.03;83.51;99808.38;1747184;81;21037;-64
2021/07/17 07:33:22;;;;;;;11.75;5.58;;;;;;;22.13;83.93;99805.22;1747438;81;26721;-63
2021/07/17 07:35:48;;;;;;;6.67;5.42;;;;;;;22.42;84.27;99809.63;1748959;80;21066;-64
2021/07/17 07:38:15;;;;;;;6.65;5.15;;;;;;;22.66;83.83;99808.23;1743189;81;21025;-64
2021/07/17 07:40:43;;;;;;;8.80;5.55;;;;;;;22.89;82.87;99816.68;1740580;81;21108;-64
2021/07/17 07:43:14;;;;;;;9.75;5.60;;;;;;;22.88;81.06;99811.86;1739284;81;21642;-63
2021/07/17 07:45:42;;;;;;;10.70;5.67;;;;;;;22.90;81.61;99810.36;1737087;81;21013;-64
2021/07/17 07:48:09;;;;;;;9.50;5.72;;;;;;;22.97;82.72;99810.98;1712379;82;20997;-64
2021/07/17 07:50:38;;;;;;;7.03;5.50;;;;;;;22.98;81.47;99811.31;1740573;80;22272;-63
2021/07/17 07:53:08;;;;;;;7.17;5.20;;;;;;;22.83;81.05;99823.44;1741188;80;21508;-63
2021/07/17 07:55:38;;;;;;;7.85;5.60;;;;;;;22.70;81.54;99820.28;1744350;81;21618;-64
2021/07/17 07:58:06;;;;;;;7.58;5.28;;;;;;;22.51;81.52;99823.86;1749668;81;21100;-64
2021/07/17 08:00:39;;;;;;;5.65;5.03;;;;;;;22.51;81.57;99827.36;1743892;81;22702;-64
2021/07/17 08:03:06;;;;;;;8.58;4.90;;;;;;;22.61;82.29;99829.16;1714700;81;20985;-64
2021/07/17 08:05:36;;;;;;;9.05;5.95;;;;;;;22.74;80.99;99830.96;1742214;81;21013;-63
2021/07/17 08:08:07;;;;;;;11.85;7.10;;;;;;;22.71;81.10;99831.26;1725699;81;21551;-64
2021/07/17 08:10:39;;;;;;;13.83;6.87;;;;;;;22.72;81.54;99824.47;1724008;81;21089;-64
2021/07/17 08:13:07;;;;;;;15.40;6.65;;;;;;;22.88;81.80;99823.84;1745250;81;21556;-64
2021/07/17 08:15:37;;;;;;;7.12;5.50;;;;;;;23.07;81.60;99819.39;1745138;81;21045;-63
2021/07/17 08:18:07;;;;;;;8.95;5.80;;;;;;;23.13;79.84;99819.61;1724720;80;22298;-63
2021/07/17 08:20:37;;;;;;;8.65;6.00;;;;;;;23.17;80.17;99826.83;1734810;81;21107;-64
2021/07/17 08:24:42;;;;;;;7.70;5.35;;;;;;;23.37;80.00;99825.69;1850885;76;22672;-64
2021/07/17 08:27:13;;;;;;;16.37;6.40;;;;;;;23.26;80.30;99822.42;1792628;77;20995;-63
2021/07/17 08:29:41;;;;;;;16.12;6.35;;;;;;;23.11;80.15;99828.77;1795403;77;21106;-63
2021/07/17 08:32:09;;;;;;;9.65;6.05;;;;;;;22.89;80.14;99833.48;1819089;77;20911;-64
2021/07/17 08:34:38;;;;;;;8.25;5.75;;;;;;;22.71;79.35;99827.27;1823815;75;21030;-63
2021/07/17 08:37:07;;;;;;;8.68;6.40;;;;;;;22.51;80.28;99840.66;1823578;77;20929;-64
2021/07/17 08:39:38;;;;;;;9.35;6.15;;;;;;;22.35;80.14;99840.47;1818737;77;20927;-63
2021/07/17 08:42:08;;;;;;;10.35;6.60;;;;;;;22.25;80.43;99836.98;1823363;77;22084;-63
2021/07/17 08:44:38;;;;;;;9.88;6.15;;;;;;;22.29;81.00;99833.91;1797229;77;21028;-64
2021/07/17 08:47:07;;;;;;;8.90;6.70;;;;;;;22.41;80.96;99838.55;1818639;78;20940;-64
2021/07/17 08:49:36;;;;;;;9.65;6.75;;;;;;;22.61;81.32;99834.48;1795391;78;21024;-65
2021/07/17 08:52:04;;;;;;;11.35;6.47;;;;;;;22.84;80.96;99839.75;1808835;77;21028;-63
2021/07/17 08:54:31;;;;;;;9.83;6.53;;;;;;;22.89;80.18;99837.48;1799977;78;21520;-63
2021/07/17 08:57:01;;;;;;;10.25;6.58;;;;;;;22.80;80.20;99837.05;1823395;77;20923;-63
2021/07/17 08:59:28;;;;;;;12.35;6.67;;;;;;;22.81;80.63;99837.88;1822411;77;20950;-63
2021/07/17 09:01:55;;;;;;;10.45;6.10;;;;;;;22.79;80.30;99835.35;1769386;78;20992;-63
2021/07/17 09:04:27;;;;;;;11.00;6.55;;;;;;;22.76;80.19;99835.65;1814738;77;21069;-63
2021/07/17 09:06:54;;;;;;;8.05;6.08;;;;;;;22.65;80.22;99829.20;1824396;77;22401;-63
2021/07/17 09:09:36;;;;;;;8.48;6.25;;;;;;;22.81;80.78;99828.56;1822509;78;21049;-63
2021/07/17 09:12:25;;;;;;;8.45;6.78;;;;;;;23.07;80.85;99826.05;1818318;77;21001;-63
2021/07/17 09:14:53;;;;;;;9.78;5.72;;;;;;;23.37;80.47;99827.02;1814213;77;20977;-63
2021/07/17 09:17:30;;;;;;;7.85;6.10;;;;;;;23.53;80.21;99828.17;1819464;77;22288;-63
2021/07/17 09:20:01;;;;;;;9.15;6.15;;;;;;;23.66;80.04;99832.09;1810330;77;21888;-63
2021/07/17 09:22:38;;;;;;;9.75;6.10;;;;;;;23.62;79.18;99829.41;1796057;78;21523;-64
2021/07/17 09:25:11;;;;;;;12.05;6.75;;;;;;;23.53;79.10;99836.17;1815367;75;20893;-64
2021/07/17 09:27:40;;;;;;;14.23;7.00;;;;;;;23.56;79.06;99830.53;1810405;77;21021;-64
2021/07/17 09:30:30;;;;;;;12.13;6.40;;;;;;;23.70;78.81;99827.31;1819802;77;20982;-64
2021/07/17 09:33:01;;;;;;;11.78;7.33;;;;;;;23.78;78.25;99824.74;1822018;77;21094;-64
2021/07/17 09:35:28;;;;;;;10.20;6.78;;;;;;;24.12;78.86;99823.98;1819419;77;21590;-64
2021/07/17 09:37:57;;;;;;;;;;;;;;;24.56;78.74;99816.74;1817503;77;21389;-64
2021/07/17 09:40:24;;;;;;;10.18;6.30;;;;;;;24.82;78.98;99818.50;1781960;78;20125;-64
2021/07/17 09:42:52;;;;;;;10.08;6.47;;;;;;;24.85;77.51;99820.02;1768795;80;21006;-64
2021/07/17 09:45:40;;;;;;;10.38;6.37;;;;;;;24.50;77.22;99816.52;1775130;79;21455;-64
2021/07/17 09:48:30;;;;;;;11.10;6.70;;;;;;;23.98;76.47;99824.55;1765027;79;21566;-64
2021/07/17 09:50:59;;;;;;;9.25;5.47;;;;;;;23.62;77.71;99817.41;1770782;79;21030;-64
2021/07/17 09:53:44;;;;;;;10.98;6.60;;;;;;;23.50;77.96;99827.12;1773401;79;20946;-64
2021/07/17 09:56:21;;;;;;;17.45;6.12;;;;;;;23.38;78.14;99828.69;1766527;80;20994;-64
2021/07/17 09:58:49;;;;;;;10.00;6.03;;;;;;;23.31;78.15;99827.63;1768903;79;21075;-64
2021/07/17 10:01:31;;;;;;;11.93;7.78;;;;;;;23.44;78.58;99828.09;1774236;79;21509;-64
2021/07/17 10:04:23;;;;;;;10.30;6.33;;;;;;;23.61;78.73;99820.22;1759946;79;21027;-64
2021/07/17 10:06:58;;;;;;;11.75;6.62;;;;;;;23.75;78.27;99822.39;1769315;79;21006;-63
2021/07/17 10:09:34;;;;;;;7.80;6.03;;;;;;;23.99;78.41;99826.22;1771652;79;20934;-63
2021/07/17 10:25:11;;;;;;;17.35;6.40;;;;;;;24.15;75.91;99811.66;1758764;79;22645;-63
2021/07/17 10:27:40;;;;;;;9.80;6.53;;;;;;;24.24;76.79;99817.87;1756463;80;20985;-64
2021/07/17 10:30:10;;;;;;;14.15;6.90;;;;;;;24.40;76.25;99808.63;1756296;80;21115;-64
2021/07/17 10:32:37;;;;;;;8.48;6.30;;;;;;;24.51;75.30;99806.20;1756395;80;21116;-64
2021/07/17 10:35:05;;;;;;;12.25;6.65;;;;;;;24.46;75.97;99809.84;1755910;80;20943;-64
2021/07/17 10:37:38;;;;;;;12.30;6.40;;;;;;;24.59;75.73;99807.58;1755147;81;21289;-64
2021/07/17 10:40:17;;;;;;;7.95;6.00;;;;;;;24.45;75.26;99816.16;1753402;81;21535;-64
2021/07/17 10:42:50;;;;;;;10.70;6.40;;;;;;;24.13;74.36;99806.97;1753213;80;21096;-64
2021/07/17 10:45:44;;;;;;;9.33;5.60;;;;;;;23.66;75.07;99813.94;1755153;80;21020;-63
2021/07/17 10:48:32;;;;;;;9.20;6.05;;;;;;;23.41;75.89;99809.75;1715638;83;21629;-63
2021/07/17 10:51:04;;;;;;;13.93;6.67;;;;;;;23.43;76.17;99802.42;1715625;83;20997;-64
2021/07/17 10:53:50;;;;;;;10.80;6.22;;;;;;;23.48;76.47;99801.14;1683321;83;21014;-63
2021/07/17 10:56:32;;;;;;;10.35;6.47;;;;;;;23.76;76.73;99805.39;1717164;83;21131;-63
2021/07/17 10:59:07;;;;;;;12.60;7.40;;;;;;;23.76;75.83;99800.06;1724600;82;20985;-63
2021/07/17 11:02:01;;;;;;;13.25;6.87;;;;;;;23.81;76.42;99805.77;1719906;81;21655;-64
2021/07/17 11:04:53;;;;;;;10.25;6.58;;;;;;;23.98;75.97;99808.55;1715465;81;20906;-64
2021/07/17 11:07:26;;;;;;;8.78;6.55;;;;;;;24.23;75.85;99801.03;1699898;83;21053;-64
2021/07/17 11:10:12;;;;;;;9.23;6.25;;;;;;;24.41;75.17;99796.94;1725418;81;21122;-64
2021/07/17 11:12:49;;;;;;;10.67;7.07;;;;;;;24.40;75.01;99796.61;1727620;81;21998;-64
2021/07/17 11:15:21;;;;;;;8.90;6.08;;;;;;;24.45;75.63;99797.48;1719892;81;21004;-63
2021/07/17 11:17:53;;;;;;;12.98;7.35;;;;;;;24.41;74.98;99797.44;1720653;81;21074;-64
2021/07/17 11:20:29;;;;;;;10.53;5.92;;;;;;;24.12;74.15;99805.30;1707487;82;22210;-64
2021/07/17 11:23:08;;;;;;;11.50;6.33;;;;;;;23.75;74.72;99805.06;1718768;81;21206;-64
2021/07/17 11:25:36;;;;;;;12.15;6.12;;;;;;;23.62;75.35;99809.92;1673082;85;21012;-63
2021/07/17 11:28:04;;;;;;;11.75;6.47;;;;;;;23.49;75.42;99808.13;1691656;83;21604;-64
2021/07/17 11:30:36;;;;;;;10.00;6.50;;;;;;;23.29;75.52;99800.30;1670106;84;21101;-64
2021/07/17 11:33:11;;;;;;;12.65;6.33;;;;;;;23.16;75.89;99811.81;1665622;84;21074;-63
2021/07/17 11:35:42;;;;;;;14.03;7.85;;;;;;;22.98;76.02;99805.16;1687560;83;21147;-63
2021/07/17 11:38:12;;;;;;;10.72;7.60;;;;;;;22.86;76.54;99796.52;1669798;85;21009;-63
2021/07/17 11:40:39;;;;;;;13.88;7.58;;;;;;;22.85;76.66;99793.48;1668135;84;21061;-63
2021/07/17 11:43:10;;;;;;;9.38;6.72;;;;;;;22.95;76.75;99787.66;1694502;83;21591;-62
2021/07/17 11:45:42;;;;;;;8.98;7.05;;;;;;;23.20;76.92;99790.06;1693767;83;20968;-65
2021/07/17 11:48:15;;;;;;;10.45;6.33;;;;;;;23.44;76.44;99783.27;1637339;84;22554;-63
2021/07/17 11:50:46;;;;;;;11.25;6.70;;;;;;;23.36;76.00;99779.23;1669827;85;21033;-64